Simpson, North Carolina
Current Conditions -  °F | °C
As of 2:10 PM on Monday 20 Oct 2014 (Local Time) from KPGV Reporting Station
Clear Clear  
Wind Chill: 70°   Ceiling: Unl
Heat Index: 70°   Visibility: 10mi
Dew Point: 48°   Wind: 13mph
Humidity: 46%   Direction: 200°SSW
Pressure: 30.07"   Gusts: 17mph
Location:  35.58°N, 77.28°W
Report Text: KPGV 201810Z AUTO 20011G15KT 10SM CLR 21/09 A3007 RMK AO2
Loading
Personal Weather Stations






























Interactive Weather Map
Tropical Storm Tracking
New forecast layout! Learn more

10-Day Weather Forecast

Advertisements
Track Severe Weather on mobile